Time;durP1;ratioP1;P1;durP2;ratioP2;P2;SDS_P1;SDS_P2;PMS_P1;PMS_P2;Temp;Humidity;BMP_temperature;BMP_pressure;BME280_temperature;BME280_humidity;BME280_pressure;Samples;Min_cycle;Max_cycle;Signal;HPM_P1;HPM_P2
2022/07/05 00:02:26;;;;;;;208.53;196.73;;;15.30;99.90;;;;;;5092207;28;20194;-65
2022/07/05 00:04:54;;;;;;;210.63;198.70;;;15.30;99.90;;;;;;5073734;28;20199;-64
2022/07/05 00:07:21;;;;;;;213.53;201.67;;;15.40;99.90;;;;;;5092031;28;20208;-64
2022/07/05 00:09:58;;;;;;;225.00;212.03;;;15.40;99.90;;;;;;5091442;28;20188;-65
2022/07/05 00:12:29;;;;;;;233.67;219.77;;;15.20;99.90;;;;;;5079390;28;20274;-65
2022/07/05 00:14:58;;;;;;;222.93;209.17;;;15.20;99.90;;;;;;5088587;28;20673;-65
2022/07/05 00:17:25;;;;;;;214.10;201.73;;;15.10;99.90;;;;;;5091635;28;20191;-64
2022/07/05 00:19:52;;;;;;;219.10;206.47;;;15.10;99.90;;;;;;5091754;28;20187;-65
2022/07/05 00:22:20;;;;;;;220.23;207.43;;;15.20;99.90;;;;;;5091805;28;20643;-65
2022/07/05 00:24:47;;;;;;;213.37;201.43;;;15.30;99.90;;;;;;5091269;28;20193;-66
2022/07/05 00:27:14;;;;;;;206.70;195.37;;;15.30;99.90;;;;;;5091176;28;20299;-64
2022/07/05 00:29:42;;;;;;;223.60;210.77;;;15.20;99.90;;;;;;5091885;28;20212;-65
2022/07/05 00:32:09;;;;;;;223.23;210.50;;;15.40;99.90;;;;;;5083323;28;20183;-65
2022/07/05 00:34:37;;;;;;;223.87;210.87;;;15.40;99.90;;;;;;5091523;28;20173;-65
2022/07/05 00:37:04;;;;;;;239.77;225.53;;;15.40;99.90;;;;;;5091167;28;20201;-65
2022/07/05 00:39:31;;;;;;;249.40;234.73;;;15.30;99.90;;;;;;5091360;28;20181;-65
2022/07/05 00:42:00;;;;;;;255.30;240.00;;;15.40;99.90;;;;;;5091514;28;20178;-64
2022/07/05 00:44:45;;;;;;;248.27;232.43;;;15.30;99.90;;;;;;5088519;28;20636;-66
2022/07/05 00:47:13;;;;;;;251.47;235.73;;;15.40;99.90;;;;;;5076577;28;20212;-65
2022/07/05 00:49:42;;;;;;;252.67;236.73;;;15.40;99.90;;;;;;5071214;28;20251;-64
2022/07/05 00:52:11;;;;;;;255.70;239.70;;;15.40;99.90;;;;;;5071285;28;20209;-65
2022/07/05 00:54:39;;;;;;;250.40;234.40;;;15.50;99.90;;;;;;5070745;28;20266;-66
2022/07/05 00:57:07;;;;;;;226.47;212.73;;;15.60;99.90;;;;;;5070390;28;20213;-65
2022/07/05 00:59:35;;;;;;;204.60;193.03;;;15.70;99.90;;;;;;5070139;28;21468;-65
2022/07/05 01:02:03;;;;;;;189.47;179.07;;;15.70;99.90;;;;;;5066708;28;20187;-65
2022/07/05 01:04:31;;;;;;;190.00;179.80;;;15.80;99.90;;;;;;5078839;28;20182;-66
2022/07/05 01:06:58;;;;;;;196.80;186.07;;;15.80;99.90;;;;;;5071335;28;20226;-66
2022/07/05 01:09:25;;;;;;;182.13;172.63;;;15.90;99.90;;;;;;5070196;28;20176;-65
2022/07/05 01:11:54;;;;;;;162.60;154.10;;;16.00;99.90;;;;;;5069312;28;20736;-65
2022/07/05 01:14:23;;;;;;;161.90;153.70;;;16.20;99.90;;;;;;5069105;28;20215;-67
2022/07/05 01:16:52;;;;;;;160.00;151.73;;;16.30;99.90;;;;;;5050967;28;20233;-66
2022/07/05 01:19:21;;;;;;;142.07;134.73;;;16.40;99.90;;;;;;5068902;28;20199;-66
2022/07/05 01:21:50;;;;;;;119.47;113.63;;;16.30;99.90;;;;;;5069122;28;20184;-65
2022/07/05 01:24:20;;;;;;;128.40;122.10;;;16.20;99.90;;;;;;5069983;28;20238;-66
2022/07/05 01:26:49;;;;;;;136.77;129.63;;;16.10;99.90;;;;;;5070657;28;20243;-65
2022/07/05 01:29:17;;;;;;;142.70;135.00;;;16.10;99.90;;;;;;5070882;28;20175;-65
2022/07/05 01:31:45;;;;;;;119.70;113.50;;;16.10;99.90;;;;;;5070991;28;20601;-66
2022/07/05 01:34:13;;;;;;;136.53;129.63;;;16.00;99.90;;;;;;5072215;28;20195;-65
2022/07/05 01:36:40;;;;;;;167.37;158.37;;;16.00;99.90;;;;;;5074470;28;20179;-65
2022/07/05 01:39:08;;;;;;;194.70;183.77;;;15.90;99.90;;;;;;5082092;28;20547;-66
2022/07/05 01:41:36;;;;;;;222.20;209.13;;;15.80;99.90;;;;;;5094505;28;20262;-66
2022/07/05 01:44:04;;;;;;;219.57;206.87;;;15.70;99.90;;;;;;5094711;28;20182;-66
2022/07/05 01:46:36;;;;;;;225.73;211.87;;;15.70;99.90;;;;;;5094425;28;20289;-65
2022/07/05 01:49:08;;;;;;;231.47;217.13;;;15.70;99.90;;;;;;5094852;28;20185;-64
2022/07/05 01:51:47;;;;;;;217.17;204.13;;;15.70;99.90;;;;;;5094312;28;20251;-65
2022/07/05 01:54:15;;;;;;;225.53;211.73;;;15.70;99.90;;;;;;5094458;28;20182;-65
2022/07/05 01:56:42;;;;;;;209.13;196.97;;;15.80;99.90;;;;;;5077966;28;20232;-65
2022/07/05 01:59:10;;;;;;;226.03;213.37;;;15.70;99.90;;;;;;5091635;28;20189;-66
2022/07/05 02:01:39;;;;;;;190.10;180.20;;;15.80;99.90;;;;;;5080909;28;20185;-66
2022/07/05 02:04:09;;;;;;;164.33;156.23;;;15.80;99.90;;;;;;5061694;28;20180;-65
2022/07/05 02:06:36;;;;;;;160.17;152.20;;;15.70;99.90;;;;;;5094106;28;20600;-65
2022/07/05 02:09:07;;;;;;;164.03;155.23;;;15.70;99.90;;;;;;5094275;28;20611;-66
2022/07/05 02:11:35;;;;;;;165.73;156.97;;;15.60;99.90;;;;;;5076657;28;20576;-65
2022/07/05 02:14:02;;;;;;;166.10;157.70;;;15.60;99.90;;;;;;5086404;28;20237;-67
2022/07/05 02:16:30;;;;;;;186.10;176.70;;;15.70;99.90;;;;;;5093433;28;20597;-67
2022/07/05 02:18:57;;;;;;;168.97;160.17;;;15.70;99.90;;;;;;5093492;28;20571;-69
2022/07/05 02:21:25;;;;;;;160.00;151.90;;;15.80;99.90;;;;;;5093194;28;20621;-68
2022/07/05 02:23:52;;;;;;;173.87;164.97;;;15.90;99.90;;;;;;5093422;28;20269;-66
2022/07/05 02:26:20;;;;;;;163.50;155.20;;;15.90;99.90;;;;;;5092821;28;20209;-67
2022/07/05 02:28:47;;;;;;;202.30;191.70;;;15.70;99.90;;;;;;5092893;28;20221;-65
2022/07/05 02:31:16;;;;;;;213.90;202.37;;;15.60;99.90;;;;;;5093540;28;20182;-69
2022/07/05 02:33:43;;;;;;;195.30;184.30;;;15.60;99.90;;;;;;5093522;28;20187;-67
2022/07/05 02:36:13;;;;;;;189.63;179.13;;;15.60;99.90;;;;;;5093069;28;20179;-65
2022/07/05 02:38:41;;;;;;;199.63;188.20;;;15.70;99.90;;;;;;5093114;28;20263;-65
2022/07/05 02:41:09;;;;;;;226.60;212.90;;;15.60;99.90;;;;;;5093450;28;20183;-66
2022/07/05 02:43:38;;;;;;;223.77;211.60;;;15.70;99.90;;;;;;5093157;28;20282;-65
2022/07/05 02:46:07;;;;;;;241.90;227.57;;;15.70;99.90;;;;;;5074670;28;20196;-66
2022/07/05 02:48:35;;;;;;;231.30;218.00;;;15.80;99.90;;;;;;5092659;28;20213;-66
2022/07/05 02:51:03;;;;;;;233.27;220.17;;;15.80;99.90;;;;;;5093222;28;20185;-67
2022/07/05 02:53:31;;;;;;;216.10;204.27;;;15.90;99.90;;;;;;5093002;28;20302;-68
2022/07/05 02:55:58;;;;;;;233.10;219.70;;;16.00;99.90;;;;;;5092738;28;20194;-67
2022/07/05 02:58:25;;;;;;;231.87;218.13;;;16.10;99.90;;;;;;5080655;28;20186;-67
2022/07/05 03:00:52;;;;;;;206.90;195.50;;;16.00;99.90;;;;;;5073000;28;20258;-67
2022/07/05 03:03:20;;;;;;;224.73;211.93;;;16.10;99.90;;;;;;5072698;28;20183;-69
2022/07/05 03:05:47;;;;;;;223.00;210.03;;;16.10;99.90;;;;;;5081596;28;20208;-67
2022/07/05 03:08:14;;;;;;;224.03;211.73;;;16.10;99.90;;;;;;5092141;28;20225;-66
2022/07/05 03:10:42;;;;;;;200.27;189.77;;;16.20;99.90;;;;;;5092663;28;20245;-66
2022/07/05 03:13:09;;;;;;;207.50;196.63;;;16.20;99.90;;;;;;5092350;28;20192;-66
2022/07/05 03:15:36;;;;;;;178.33;168.77;;;16.20;99.90;;;;;;5092247;28;20236;-67
2022/07/05 03:18:04;;;;;;;158.53;150.07;;;16.20;99.90;;;;;;5092059;28;20194;-67
2022/07/05 03:20:32;;;;;;;168.83;159.87;;;16.30;99.90;;;;;;5092429;28;20597;-67
2022/07/05 03:22:59;;;;;;;151.17;143.03;;;16.40;99.90;;;;;;5092623;28;20187;-67
2022/07/05 03:25:26;;;;;;;129.60;122.80;;;16.40;99.90;;;;;;5092385;28;20193;-66
2022/07/05 03:27:54;;;;;;;136.90;129.33;;;16.30;99.90;;;;;;5091859;28;20234;-67
2022/07/05 03:30:22;;;;;;;135.57;128.40;;;16.40;99.90;;;;;;5092083;28;20201;-67
2022/07/05 03:32:50;;;;;;;156.03;147.47;;;16.40;99.90;;;;;;5074674;28;20187;-67
2022/07/05 03:35:17;;;;;;;168.67;159.07;;;16.30;99.90;;;;;;5059333;28;20229;-67
2022/07/05 03:37:45;;;;;;;168.30;158.83;;;16.20;99.90;;;;;;5092076;28;20189;-67
2022/07/05 03:40:12;;;;;;;178.80;168.90;;;16.10;99.90;;;;;;5091930;28;20182;-66
2022/07/05 03:42:39;;;;;;;177.13;166.77;;;16.00;99.90;;;;;;5092449;28;20214;-67
2022/07/05 03:45:07;;;;;;;196.37;184.97;;;16.00;99.90;;;;;;5091745;28;20187;-67
2022/07/05 03:47:34;;;;;;;197.50;186.23;;;15.80;99.90;;;;;;5091699;28;20253;-67
2022/07/05 03:50:02;;;;;;;210.10;198.03;;;15.90;99.90;;;;;;5073614;28;20700;-66
2022/07/05 03:52:29;;;;;;;190.30;179.63;;;15.90;99.90;;;;;;5090333;28;20238;-66
2022/07/05 03:54:57;;;;;;;170.10;160.53;;;15.90;99.90;;;;;;5077681;28;20263;-68
2022/07/05 03:57:24;;;;;;;176.43;166.47;;;16.00;99.90;;;;;;5088974;28;20190;-67
2022/07/05 03:59:51;;;;;;;179.93;169.63;;;15.90;99.90;;;;;;5092189;28;20647;-67
2022/07/05 04:02:19;;;;;;;201.17;190.37;;;15.90;99.90;;;;;;5092133;28;20226;-68
2022/07/05 04:04:46;;;;;;;195.03;184.30;;;16.00;99.90;;;;;;5091913;28;20204;-67
2022/07/05 04:07:13;;;;;;;178.93;168.63;;;16.00;99.90;;;;;;5091826;28;20214;-67
2022/07/05 04:09:41;;;;;;;168.30;159.40;;;16.00;99.90;;;;;;5092046;28;20181;-67
2022/07/05 04:12:08;;;;;;;144.27;135.93;;;16.00;99.90;;;;;;5092007;28;20190;-67
2022/07/05 04:14:36;;;;;;;152.67;144.37;;;16.00;99.90;;;;;;5091526;28;20175;-67
2022/07/05 04:17:03;;;;;;;160.53;151.77;;;16.00;99.90;;;;;;5091874;28;20178;-67
2022/07/05 04:19:30;;;;;;;150.53;142.80;;;16.10;99.90;;;;;;5091868;28;20171;-68
2022/07/05 04:21:58;;;;;;;159.70;150.97;;;16.10;99.90;;;;;;5091725;28;20652;-67
2022/07/05 04:24:25;;;;;;;162.97;154.57;;;16.10;99.90;;;;;;5073441;28;20230;-67
2022/07/05 04:26:53;;;;;;;164.00;155.37;;;16.10;99.90;;;;;;5091410;28;20226;-66
2022/07/05 04:29:20;;;;;;;158.97;150.47;;;16.10;99.90;;;;;;5091748;28;20599;-67
2022/07/05 04:31:47;;;;;;;125.77;118.90;;;16.20;99.90;;;;;;5091793;28;20253;-67
2022/07/05 04:34:15;;;;;;;120.57;113.90;;;16.30;99.90;;;;;;5091450;28;20170;-67
2022/07/05 04:36:42;;;;;;;127.23;120.13;;;16.30;99.90;;;;;;5091305;28;20288;-67
2022/07/05 04:39:09;;;;;;;144.60;137.10;;;16.20;99.90;;;;;;5091790;28;20174;-67
2022/07/05 04:41:37;;;;;;;149.83;142.23;;;16.00;99.90;;;;;;5091617;28;20185;-67
2022/07/05 04:44:04;;;;;;;144.73;136.83;;;16.00;99.90;;;;;;5091599;28;20175;-68
2022/07/05 04:46:32;;;;;;;136.00;128.37;;;16.10;99.90;;;;;;5091404;28;20550;-67
2022/07/05 04:48:59;;;;;;;115.53;108.33;;;16.20;99.90;;;;;;5091677;28;20184;-68
2022/07/05 04:51:26;;;;;;;135.67;128.53;;;16.20;99.90;;;;;;5091481;28;20174;-67
2022/07/05 04:53:55;;;;;;;124.50;117.57;;;16.10;99.90;;;;;;5065823;28;20192;-67
2022/07/05 04:56:23;;;;;;;115.60;109.53;;;16.10;99.90;;;;;;5076969;28;20178;-66
2022/07/05 04:58:50;;;;;;;124.50;117.37;;;16.10;99.90;;;;;;5086424;28;20179;-66
2022/07/05 05:01:17;;;;;;;99.07;93.57;;;16.10;99.90;;;;;;5061326;28;20195;-67
2022/07/05 05:03:45;;;;;;;111.37;105.17;;;16.10;99.90;;;;;;5056868;28;20182;-67
2022/07/05 05:06:13;;;;;;;101.47;95.00;;;16.20;99.90;;;;;;5056962;28;20184;-66
2022/07/05 05:08:41;;;;;;;118.57;112.37;;;16.20;99.90;;;;;;5054933;28;20260;-67
2022/07/05 05:11:10;;;;;;;144.83;137.03;;;16.10;99.90;;;;;;5058018;28;20572;-66
2022/07/05 05:13:37;;;;;;;167.60;158.40;;;16.00;99.90;;;;;;5054855;28;20326;-67
2022/07/05 05:16:04;;;;;;;198.20;187.43;;;15.90;99.90;;;;;;5088432;28;20181;-69
2022/07/05 05:18:32;;;;;;;201.37;190.43;;;15.80;99.90;;;;;;5095061;28;20175;-68
2022/07/05 05:20:59;;;;;;;193.23;182.27;;;15.70;99.90;;;;;;5066211;28;20180;-67
2022/07/05 05:23:26;;;;;;;190.97;180.43;;;15.60;99.90;;;;;;5080987;28;20183;-67
2022/07/05 05:25:54;;;;;;;216.93;204.90;;;15.50;99.90;;;;;;5094836;28;20249;-67
2022/07/05 05:28:21;;;;;;;235.17;221.70;;;15.50;99.90;;;;;;5094643;28;20703;-67
2022/07/05 05:30:48;;;;;;;231.83;218.23;;;15.50;99.90;;;;;;5094877;28;20200;-67
2022/07/05 05:33:16;;;;;;;241.57;227.37;;;15.50;99.90;;;;;;5094637;28;20319;-67
2022/07/05 05:35:43;;;;;;;232.57;218.53;;;15.50;99.90;;;;;;5094722;28;20176;-67
2022/07/05 05:38:11;;;;;;;252.13;237.37;;;15.30;99.90;;;;;;5094194;28;20192;-67
2022/07/05 05:40:38;;;;;;;258.87;242.87;;;15.30;99.90;;;;;;5094643;28;20531;-68
2022/07/05 05:43:05;;;;;;;274.33;258.13;;;15.30;99.90;;;;;;5089873;28;20680;-67
2022/07/05 05:45:34;;;;;;;274.37;258.07;;;15.20;99.90;;;;;;5093859;28;20668;-67
2022/07/05 05:48:01;;;;;;;271.13;254.67;;;15.20;99.90;;;;;;5089966;28;20268;-67
2022/07/05 05:50:31;;;;;;;271.63;254.83;;;15.20;99.90;;;;;;5094658;28;20185;-67
2022/07/05 05:52:59;;;;;;;274.83;258.40;;;15.10;99.90;;;;;;5094687;28;20177;-66
2022/07/05 05:55:28;;;;;;;264.40;248.60;;;15.20;99.90;;;;;;5093838;28;20186;-66
2022/07/05 05:57:59;;;;;;;279.00;261.70;;;15.10;99.90;;;;;;5073884;28;20722;-66
2022/07/05 06:00:26;;;;;;;281.67;263.93;;;15.10;99.90;;;;;;5076360;28;20180;-65
2022/07/05 06:02:54;;;;;;;286.37;268.37;;;15.10;99.90;;;;;;5073851;28;20192;-66
2022/07/05 06:05:21;;;;;;;271.23;254.43;;;15.00;99.90;;;;;;5074128;28;20175;-66
2022/07/05 06:07:52;;;;;;;282.00;263.80;;;15.00;99.90;;;;;;5087279;28;20274;-67
2022/07/05 06:10:22;;;;;;;271.43;254.40;;;15.00;99.90;;;;;;5094560;28;20984;-66
2022/07/05 06:12:51;;;;;;;286.63;268.17;;;14.90;99.90;;;;;;5094326;28;20178;-67
2022/07/05 06:15:18;;;;;;;274.93;256.47;;;14.90;99.90;;;;;;5094157;28;20170;-67
2022/07/05 06:17:47;;;;;;;276.53;257.47;;;14.80;99.90;;;;;;5093726;28;20200;-67
2022/07/05 06:20:19;;;;;;;274.13;254.73;;;14.70;99.90;;;;;;5093842;28;20199;-67
2022/07/05 06:22:47;;;;;;;279.13;258.80;;;14.60;99.90;;;;;;5094079;28;20199;-66
2022/07/05 06:25:14;;;;;;;285.57;264.47;;;14.50;99.90;;;;;;5091853;28;20214;-66
2022/07/05 06:27:59;;;;;;;285.47;264.50;;;14.50;99.90;;;;;;5093538;28;20251;-65
2022/07/05 06:30:28;;;;;;;280.07;259.40;;;14.50;99.90;;;;;;5093802;28;20186;-66
2022/07/05 06:32:56;;;;;;;290.00;268.70;;;14.50;99.90;;;;;;5093102;28;20273;-66
2022/07/05 06:35:24;;;;;;;289.43;268.23;;;14.40;99.90;;;;;;5093655;28;20183;-66
2022/07/05 06:37:54;;;;;;;284.60;263.33;;;14.40;99.90;;;;;;5093291;28;20212;-66
2022/07/05 06:40:36;;;;;;;277.30;256.23;;;14.40;99.90;;;;;;5075591;28;20678;-67
2022/07/05 06:43:08;;;;;;;287.40;266.13;;;14.40;99.90;;;;;;5093829;28;20248;-67
2022/07/05 06:45:35;;;;;;;275.63;255.23;;;14.40;99.90;;;;;;5093591;28;20656;-66
2022/07/05 06:48:11;;;;;;;280.13;259.10;;;14.40;99.90;;;;;;5092894;28;20229;-66
2022/07/05 06:50:40;;;;;;;302.33;280.63;;;14.40;99.90;;;;;;5093501;28;20197;-66
2022/07/05 06:53:09;;;;;;;290.27;268.80;;;14.30;99.90;;;;;;5093455;28;20550;-67
2022/07/05 06:55:36;;;;;;;285.13;264.30;;;14.30;99.90;;;;;;5074790;28;20214;-67
2022/07/05 06:58:05;;;;;;;279.03;258.53;;;14.30;99.90;;;;;;5092842;28;20185;-67
2022/07/05 07:00:33;;;;;;;278.87;258.60;;;14.30;99.90;;;;;;5093277;28;20171;-66
2022/07/05 07:03:01;;;;;;;286.53;266.47;;;14.30;99.90;;;;;;5093307;28;20261;-65
2022/07/05 07:05:28;;;;;;;291.93;272.23;;;14.40;99.90;;;;;;5093109;28;20185;-66
2022/07/05 07:11:18;;;;;;;291.67;271.70;;;14.40;99.90;;;;;;5093209;28;20181;-66
2022/07/05 07:13:45;;;;;;;279.60;260.33;;;14.40;99.90;;;;;;5092905;28;20202;-66
2022/07/05 07:16:13;;;;;;;280.63;261.07;;;14.40;99.90;;;;;;5076210;28;20187;-65
2022/07/05 07:18:40;;;;;;;271.47;251.80;;;14.30;99.90;;;;;;5073422;28;20199;-65
2022/07/05 07:21:07;;;;;;;254.93;236.63;;;14.30;99.90;;;;;;5072457;28;20206;-66
2022/07/05 07:23:36;;;;;;;260.70;242.33;;;14.20;99.90;;;;;;5072483;28;20180;-65
2022/07/05 07:26:03;;;;;;;264.23;245.77;;;14.20;99.90;;;;;;5072468;28;20218;-66
2022/07/05 07:28:31;;;;;;;271.13;251.87;;;14.10;99.90;;;;;;5072674;28;20241;-65
2022/07/05 07:30:58;;;;;;;280.93;261.60;;;14.00;99.90;;;;;;5080170;28;20705;-66
2022/07/05 07:33:25;;;;;;;277.37;258.37;;;14.10;99.90;;;;;;5073866;28;20900;-66
2022/07/05 07:35:53;;;;;;;272.67;253.87;;;14.10;99.90;;;;;;5092787;28;20176;-64
2022/07/05 07:38:20;;;;;;;271.07;253.27;;;14.10;99.90;;;;;;5092605;28;20206;-65
2022/07/05 07:40:47;;;;;;;269.13;251.23;;;14.10;99.90;;;;;;5092316;28;20186;-64
2022/07/05 07:43:14;;;;;;;268.57;250.93;;;14.10;99.90;;;;;;5092642;28;20221;-64
2022/07/05 07:45:42;;;;;;;268.07;250.67;;;14.00;99.90;;;;;;5092769;28;20186;-65
2022/07/05 07:48:10;;;;;;;276.00;258.03;;;14.00;99.90;;;;;;5091901;28;20638;-65
2022/07/05 07:50:37;;;;;;;260.70;243.83;;;14.10;99.90;;;;;;5092164;28;20178;-64
2022/07/05 07:53:04;;;;;;;267.43;250.20;;;14.10;99.90;;;;;;5092437;28;20197;-65
2022/07/05 07:55:32;;;;;;;271.87;255.23;;;14.10;99.90;;;;;;5092328;28;20256;-65
2022/07/05 07:57:59;;;;;;;271.83;255.17;;;14.10;99.90;;;;;;5092129;28;20182;-65
2022/07/05 08:00:26;;;;;;;257.77;241.90;;;14.20;99.90;;;;;;5073792;28;20183;-65
2022/07/05 08:02:54;;;;;;;266.43;249.93;;;14.20;99.90;;;;;;5092280;28;20212;-64
2022/07/05 08:05:21;;;;;;;259.33;243.03;;;14.30;99.90;;;;;;5092347;28;20175;-64
2022/07/05 08:07:48;;;;;;;260.40;243.97;;;14.30;99.90;;;;;;5092161;28;20226;-65
2022/07/05 08:10:15;;;;;;;260.30;244.33;;;14.20;99.90;;;;;;5092013;28;20241;-64
2022/07/05 08:12:43;;;;;;;257.13;241.37;;;14.20;99.90;;;;;;5051965;28;20184;-64
2022/07/05 08:15:11;;;;;;;260.57;244.70;;;14.20;99.90;;;;;;5052000;28;20176;-65
2022/07/05 08:21:30;;;;;;;263.33;247.73;;;14.30;99.90;;;;;;5089333;28;20190;-66
2022/07/05 08:23:11;;;;;;;272.97;256.70;;;14.50;99.90;;;;;;5092197;28;20189;-64
2022/07/05 08:25:38;;;;;;;268.00;252.30;;;14.60;99.90;;;;;;5073610;28;20703;-65
2022/07/05 08:28:05;;;;;;;260.53;244.73;;;14.70;99.90;;;;;;5091657;28;20234;-66
2022/07/05 08:30:33;;;;;;;263.67;247.77;;;14.70;99.90;;;;;;5091976;28;20174;-65
2022/07/05 08:33:00;;;;;;;266.80;250.50;;;14.80;99.90;;;;;;5091645;28;20554;-66
2022/07/05 08:35:27;;;;;;;267.90;252.23;;;14.70;99.90;;;;;;5092050;28;20178;-66
2022/07/05 08:37:55;;;;;;;273.57;257.67;;;14.80;99.90;;;;;;5091635;28;20170;-65
2022/07/05 08:40:26;;;;;;;284.10;267.73;;;14.80;99.90;;;;;;5091937;28;20173;-66
2022/07/05 08:42:57;;;;;;;275.07;258.47;;;14.80;99.90;;;;;;5092047;28;20187;-65
2022/07/05 08:45:27;;;;;;;271.67;255.03;;;14.80;99.90;;;;;;5077983;28;20179;-66
2022/07/05 08:47:56;;;;;;;261.67;246.97;;;14.80;99.90;;;;;;5095810;28;20229;-66
2022/07/05 08:50:26;;;;;;;255.57;240.43;;;14.80;99.90;;;;;;5095702;28;20192;-66
2022/07/05 08:52:53;;;;;;;249.80;234.60;;;14.80;99.90;;;;;;5094001;28;20187;-67
2022/07/05 08:55:22;;;;;;;254.17;239.63;;;14.80;99.90;;;;;;5095805;28;20166;-66
2022/07/05 08:57:49;;;;;;;248.97;234.60;;;14.80;99.90;;;;;;5095727;28;20189;-67
2022/07/05 09:00:17;;;;;;;249.23;235.17;;;14.80;99.90;;;;;;5095747;28;20705;-67
2022/07/05 09:02:44;;;;;;;265.47;250.63;;;14.90;99.90;;;;;;5095429;28;20541;-66
2022/07/05 09:05:15;;;;;;;239.60;226.33;;;14.90;99.90;;;;;;5095505;28;20662;-68
2022/07/05 09:07:59;;;;;;;243.33;229.80;;;15.00;99.90;;;;;;5095274;28;20260;-65
2022/07/05 09:10:28;;;;;;;254.43;240.47;;;15.00;99.90;;;;;;5095128;28;20175;-66
2022/07/05 09:12:57;;;;;;;245.27;231.37;;;15.00;99.90;;;;;;5077806;28;20186;-65
2022/07/05 09:15:24;;;;;;;250.50;235.97;;;14.90;99.90;;;;;;5095620;28;20758;-64
2022/07/05 09:17:52;;;;;;;247.17;233.70;;;14.90;99.90;;;;;;5096023;28;20182;-65
2022/07/05 09:20:20;;;;;;;240.63;226.70;;;14.90;99.90;;;;;;5094501;28;20194;-66
2022/07/05 09:22:54;;;;;;;242.97;228.50;;;14.90;99.90;;;;;;5095144;28;20239;-65
2022/07/05 09:25:25;;;;;;;254.33;239.13;;;14.90;99.90;;;;;;5095380;28;20224;-67
2022/07/05 09:27:53;;;;;;;242.97;230.07;;;14.90;99.90;;;;;;5094998;28;20227;-66
2022/07/05 09:30:31;;;;;;;228.13;215.70;;;14.80;99.90;;;;;;5095232;28;20175;-67
2022/07/05 09:33:05;;;;;;;252.03;238.20;;;14.90;99.90;;;;;;5094886;28;20247;-67
2022/07/05 09:35:33;;;;;;;254.67;240.17;;;14.80;99.90;;;;;;5095172;28;20234;-67
2022/07/05 09:38:04;;;;;;;253.10;239.00;;;14.80;99.90;;;;;;5094936;28;20206;-65
2022/07/05 09:40:46;;;;;;;249.03;234.90;;;14.90;99.90;;;;;;5076522;28;20233;-64
2022/07/05 09:43:21;;;;;;;242.20;228.40;;;14.80;99.90;;;;;;5094648;28;20188;-65
2022/07/05 09:46:02;;;;;;;248.23;234.43;;;14.80;99.90;;;;;;5094984;28;20167;-66
2022/07/05 09:48:32;;;;;;;252.33;237.83;;;14.80;99.90;;;;;;5094926;28;20259;-66
2022/07/05 09:51:13;;;;;;;249.83;235.03;;;14.80;99.90;;;;;;5095742;28;20167;-66
2022/07/05 09:53:51;;;;;;;268.30;252.93;;;14.80;99.90;;;;;;5095677;28;20190;-66
2022/07/05 09:56:19;;;;;;;257.10;242.53;;;14.70;99.90;;;;;;5076723;28;20179;-65
2022/07/05 09:58:46;;;;;;;242.00;227.93;;;14.80;99.90;;;;;;5095814;28;20174;-65
2022/07/05 10:01:33;;;;;;;244.33;230.43;;;14.90;99.90;;;;;;5095342;28;20206;-65
2022/07/05 10:04:02;;;;;;;245.23;231.43;;;14.80;99.90;;;;;;5095780;28;20247;-65
2022/07/05 10:06:31;;;;;;;239.40;225.63;;;14.80;99.90;;;;;;5095608;28;20178;-65
2022/07/05 10:09:00;;;;;;;258.10;243.20;;;14.70;99.90;;;;;;5095023;28;20251;-66
2022/07/05 10:11:28;;;;;;;266.20;250.00;;;14.70;99.90;;;;;;5095318;28;20171;-68
2022/07/05 10:13:55;;;;;;;264.47;248.47;;;14.50;99.90;;;;;;5055193;28;20526;-66
2022/07/05 10:16:24;;;;;;;266.10;249.33;;;14.40;99.90;;;;;;5055142;28;20172;-66
2022/07/05 10:18:58;;;;;;;270.93;254.13;;;14.40;99.90;;;;;;5063371;28;20606;-67
2022/07/05 10:21:27;;;;;;;265.67;248.60;;;14.40;99.90;;;;;;5093462;28;20608;-66
2022/07/05 10:23:55;;;;;;;266.17;249.00;;;14.40;99.90;;;;;;5077414;28;20563;-67
2022/07/05 10:26:24;;;;;;;270.70;252.47;;;14.40;99.90;;;;;;5095441;28;20222;-66
2022/07/05 10:28:54;;;;;;;274.87;257.40;;;14.30;99.90;;;;;;5094886;28;20227;-66
2022/07/05 10:31:23;;;;;;;277.43;259.13;;;14.30;99.90;;;;;;5095406;28;20176;-66
2022/07/05 10:33:51;;;;;;;272.80;254.80;;;14.30;99.90;;;;;;5095326;28;20171;-67
2022/07/05 10:36:18;;;;;;;265.90;248.10;;;14.20;99.90;;;;;;5094745;28;20182;-66
2022/07/05 10:38:47;;;;;;;260.33;243.33;;;14.20;99.90;;;;;;5095217;28;20254;-66
2022/07/05 10:41:23;;;;;;;269.97;252.83;;;14.30;99.90;;;;;;5076652;28;20193;-66
2022/07/05 10:43:56;;;;;;;275.73;257.83;;;14.30;99.90;;;;;;5094714;28;20190;-66
2022/07/05 10:46:43;;;;;;;278.00;259.40;;;14.30;99.90;;;;;;5094799;28;20176;-66
2022/07/05 10:49:17;;;;;;;287.83;269.07;;;14.30;99.90;;;;;;5094560;28;20299;-66
2022/07/05 10:51:45;;;;;;;285.10;266.10;;;14.40;99.90;;;;;;5094631;28;20235;-66
2022/07/05 10:54:12;;;;;;;281.77;262.70;;;14.40;99.90;;;;;;5094918;28;20182;-66
2022/07/05 10:56:40;;;;;;;262.50;245.83;;;14.40;99.90;;;;;;5094343;28;20174;-66
2022/07/05 10:59:10;;;;;;;265.83;248.40;;;14.40;99.90;;;;;;5094463;28;20174;-66
2022/07/05 11:01:39;;;;;;;267.37;249.97;;;14.40;99.90;;;;;;5076095;28;20189;-66
2022/07/05 11:04:17;;;;;;;266.80;248.60;;;14.40;99.90;;;;;;5094406;28;20175;-66
2022/07/05 11:06:52;;;;;;;268.00;251.20;;;14.40;99.90;;;;;;5093658;28;20632;-67
2022/07/05 11:09:21;;;;;;;274.17;257.10;;;14.40;99.90;;;;;;5094444;28;20196;-66
2022/07/05 11:11:54;;;;;;;273.63;256.07;;;14.40;99.90;;;;;;5094871;28;20200;-65
2022/07/05 11:14:29;;;;;;;273.47;255.57;;;14.40;99.90;;;;;;5094336;28;20175;-65
2022/07/05 11:17:15;;;;;;;283.50;265.50;;;14.40;99.90;;;;;;5094299;28;20181;-65
2022/07/05 11:20:07;;;;;;;278.47;260.90;;;14.40;99.90;;;;;;5094139;28;20220;-65
2022/07/05 11:22:41;;;;;;;272.07;254.80;;;14.40;99.90;;;;;;5094418;28;20214;-66
2022/07/05 11:25:11;;;;;;;268.07;251.50;;;14.40;99.90;;;;;;5094059;28;20640;-66
2022/07/05 11:28:23;;;;;;;263.77;246.87;;;14.40;99.90;;;;;;5093726;28;20332;-67
2022/07/05 11:30:54;;;;;;;281.80;264.10;;;14.30;99.90;;;;;;5087081;28;20215;-66
2022/07/05 11:33:43;;;;;;;285.93;267.47;;;14.20;99.90;;;;;;5093959;28;20226;-66
2022/07/05 11:36:30;;;;;;;271.57;254.00;;;14.20;99.90;;;;;;5093808;28;20200;-66
2022/07/05 11:39:19;;;;;;;286.90;268.40;;;14.20;99.90;;;;;;5073037;28;20205;-65
2022/07/05 11:41:48;;;;;;;285.40;266.33;;;14.10;99.90;;;;;;5073617;28;20628;-65
2022/07/05 11:44:16;;;;;;;267.23;249.87;;;14.10;99.90;;;;;;5073507;28;20179;-66
2022/07/05 11:46:44;;;;;;;266.70;249.17;;;14.10;99.90;;;;;;5073267;28;20225;-65
2022/07/05 11:49:12;;;;;;;273.17;254.97;;;14.10;99.90;;;;;;5072839;28;20652;-65
2022/07/05 11:51:39;;;;;;;273.37;255.03;;;14.00;99.90;;;;;;5072603;28;20180;-65
2022/07/05 11:54:10;;;;;;;274.57;256.77;;;14.00;99.90;;;;;;5054958;28;20516;-64
2022/07/05 11:56:37;;;;;;;261.83;244.27;;;14.00;99.90;;;;;;5072826;28;20171;-64
2022/07/05 11:59:25;;;;;;;267.07;249.27;;;14.00;99.90;;;;;;5073292;28;20263;-65
2022/07/05 12:01:53;;;;;;;270.30;252.30;;;14.00;99.90;;;;;;5072856;28;20182;-65
2022/07/05 12:04:30;;;;;;;277.07;259.37;;;14.10;99.90;;;;;;5072883;28;20235;-65
2022/07/05 12:06:58;;;;;;;271.90;254.37;;;14.10;99.90;;;;;;5053125;28;20214;-66
2022/07/05 12:15:15;;;;;;;275.60;257.90;;;14.10;99.90;;;;;;5053253;28;20196;-66
2022/07/05 12:17:48;;;;;;;270.40;253.20;;;14.10;99.90;;;;;;5052580;28;20178;-66
2022/07/05 12:20:22;;;;;;;271.70;254.53;;;14.00;99.90;;;;;;5053117;28;20173;-66
2022/07/05 12:22:50;;;;;;;268.07;251.03;;;14.00;99.90;;;;;;5053208;28;20262;-67
2022/07/05 12:25:20;;;;;;;279.37;261.37;;;14.00;99.90;;;;;;5053098;28;20259;-66
2022/07/05 12:27:49;;;;;;;264.90;247.70;;;13.90;99.90;;;;;;5052618;28;20236;-66
2022/07/05 12:30:21;;;;;;;261.27;244.73;;;13.90;99.90;;;;;;5035684;28;20214;-66
2022/07/05 12:33:09;;;;;;;270.27;253.47;;;14.00;99.90;;;;;;5044721;28;20272;-65